Terminal Aerodrome Forecast
Issued by NWS Lubbock, TX

Home | Current Version | Previous Version | Text Only | Print | Product List | Glossary On
Versions: 1 2 3 4 5 6 7 8 9 10 11 12 13 14 15 16
000
FTUS44 KLUB 300214 AAA
TAFLBB
TAF AMD
KLBB 300214Z 3002/3024 04015G25KT P6SM BKN050
      TEMPO 3002/3004 VRB25G35KT 2SM TSRA SCT010 BKN040CB
     FM300400 08015KT P6SM SCT010 BKN040
     FM301700 18011KT P6SM SCT070=

USA.gov is the U.S. government's official web portal to all federal, state and local government web resources and services.